createdAt,value
2022-08-20T00:01:16.284Z,101442.59
2022-08-20T00:03:44.829Z,101439.09
2022-08-20T00:06:23.964Z,101439.03
2022-08-20T00:08:51.463Z,101427.44
2022-08-20T00:11:24.381Z,101416.84
2022-08-20T00:13:57.036Z,101417.84
2022-08-20T00:16:26.973Z,101426.63
2022-08-20T00:18:54.245Z,101422.28
2022-08-20T00:21:23.293Z,101418.72
2022-08-20T00:23:54.976Z,101422.28
2022-08-20T00:26:24.099Z,101422.31
2022-08-20T00:28:51.627Z,101429.56
2022-08-20T00:31:22.140Z,101430.41
2022-08-20T00:33:49.782Z,101428.63
2022-08-20T00:36:18.198Z,101426.97
2022-08-20T00:38:47.229Z,101423.34
2022-08-20T00:41:20.987Z,101435.72
2022-08-20T00:44:07.969Z,101427.75
2022-08-20T00:46:35.568Z,101432.19
2022-08-20T00:49:05.883Z,101435.75
2022-08-20T00:51:38.292Z,101429.66
2022-08-20T00:54:15.595Z,101426.97
2022-08-20T00:56:57.977Z,101430.56
2022-08-20T00:59:30.155Z,101425.03
2022-08-20T01:01:58.252Z,101436.09
2022-08-20T01:04:34.816Z,101440.41
2022-08-20T01:07:05.302Z,101432.41
2022-08-20T01:09:57.595Z,101431.34
2022-08-20T01:12:23.663Z,101425.22
2022-08-20T01:14:51.360Z,101426.94
2022-08-20T01:17:24.329Z,101426.06
2022-08-20T01:20:06.859Z,101424.19
2022-08-20T01:23:32.746Z,101430.72
2022-08-20T01:26:16.190Z,101436.88
2022-08-20T01:28:54.172Z,101435.28
2022-08-20T01:31:28.904Z,101438.09
2022-08-20T01:33:58.426Z,101439.88
2022-08-20T01:36:45.547Z,101431.06
2022-08-20T01:39:18.463Z,101432.88
2022-08-20T01:42:00.832Z,101431.00
2022-08-20T01:44:29.723Z,101431.25
2022-08-20T01:47:08.413Z,101426.19
2022-08-20T01:49:36.242Z,101428.81
2022-08-20T01:52:08.666Z,101431.78
2022-08-20T01:54:36.045Z,101432.78
2022-08-20T01:57:06.059Z,101437.19
2022-08-20T01:59:33.234Z,101439.88
2022-08-20T02:02:00.670Z,101434.66
2022-08-20T02:04:27.754Z,101439.22
2022-08-20T02:06:59.012Z,101439.00
2022-08-20T02:09:34.968Z,101442.59
2022-08-20T02:12:06.043Z,101442.84
2022-08-20T02:14:34.571Z,101436.66
2022-08-20T02:17:02.062Z,101437.56
2022-08-20T02:19:38.815Z,101438.56
2022-08-20T02:22:40.846Z,101446.56
2022-08-20T02:25:17.881Z,101436.09
2022-08-20T02:27:48.493Z,101443.19
2022-08-20T02:30:34.061Z,101437.03
2022-08-20T02:33:04.750Z,101429.91
2022-08-20T02:35:34.032Z,101440.50
2022-08-20T02:38:01.695Z,101437.88
2022-08-20T02:40:31.031Z,101445.91
2022-08-20T02:43:00.358Z,101451.16
2022-08-20T02:45:29.226Z,101450.38
2022-08-20T02:47:57.525Z,101451.84
2022-08-20T02:50:26.325Z,101452.50
2022-08-20T02:52:54.096Z,101452.81
2022-08-20T02:55:27.027Z,101454.38
2022-08-20T02:57:58.649Z,101443.84
2022-08-20T03:00:37.930Z,101454.69
2022-08-20T03:03:10.442Z,101455.09
2022-08-20T03:05:40.826Z,101449.84
2022-08-20T03:08:13.383Z,101449.84
2022-08-20T03:10:44.103Z,101461.38
2022-08-20T03:13:12.622Z,101454.03
2022-08-20T03:15:48.087Z,101456.78
2022-08-20T03:18:17.209Z,101459.59
2022-08-20T03:20:46.002Z,101458.88
2022-08-20T03:23:14.137Z,101449.84
2022-08-20T03:25:42.083Z,101461.44
2022-08-20T03:28:10.253Z,101464.25
2022-08-20T03:30:37.731Z,101458.97
2022-08-20T03:33:05.144Z,101464.97
2022-08-20T03:35:33.351Z,101469.88
2022-08-20T03:38:00.836Z,101465.81
2022-08-20T03:40:34.165Z,101470.88
2022-08-20T03:43:01.975Z,101469.34
2022-08-20T03:45:30.010Z,101465.03
2022-08-20T03:47:58.057Z,101470.06
2022-08-20T03:50:29.556Z,101471.09
2022-08-20T03:52:57.773Z,101469.63
2022-08-20T03:55:25.938Z,101474.03
2022-08-20T03:57:57.812Z,101473.88
2022-08-20T04:00:31.116Z,101473.84
2022-08-20T04:02:58.627Z,101480.28
2022-08-20T04:05:28.297Z,101473.41
2022-08-20T04:08:03.245Z,101470.91
2022-08-20T04:10:32.290Z,101479.69
2022-08-20T04:12:59.699Z,101480.78
2022-08-20T04:15:27.291Z,101479.75
2022-08-20T04:17:54.930Z,101484.31
2022-08-20T04:20:26.149Z,101489.66
2022-08-20T04:22:59.217Z,101488.03
2022-08-20T04:25:36.031Z,101490.56
2022-08-20T04:28:06.607Z,101488.91
2022-08-20T04:30:34.712Z,101487.03
2022-08-20T04:33:02.046Z,101488.09
2022-08-20T04:35:30.755Z,101495.00
2022-08-20T04:38:01.555Z,101498.72
2022-08-20T04:40:47.955Z,101497.75
2022-08-20T04:43:15.740Z,101493.38
2022-08-20T04:45:44.796Z,101495.97
2022-08-20T04:48:15.144Z,101514.78
2022-08-20T04:50:46.738Z,101508.53
2022-08-20T04:53:20.645Z,101504.25
2022-08-20T04:55:52.643Z,101515.53
2022-08-20T04:58:27.543Z,101516.63
2022-08-20T05:01:01.232Z,101523.91
2022-08-20T05:03:28.911Z,101529.97
2022-08-20T05:05:56.961Z,101526.47
2022-08-20T05:08:26.090Z,101522.63
2022-08-20T05:10:56.096Z,101533.53
2022-08-20T05:13:42.874Z,101537.97
2022-08-20T05:16:10.170Z,101535.41
2022-08-20T05:18:37.239Z,101532.44
2022-08-20T05:21:07.683Z,101535.97
2022-08-20T05:23:38.962Z,101530.50
2022-08-20T05:26:07.569Z,101530.44
2022-08-20T05:28:36.869Z,101537.91
2022-08-20T05:31:19.498Z,101523.53
2022-08-20T05:33:46.470Z,101536.53
2022-08-20T05:36:15.454Z,101541.31
2022-08-20T05:38:44.235Z,101545.13
2022-08-20T05:41:28.686Z,101546.63
2022-08-20T05:44:02.922Z,101540.97
2022-08-20T05:46:31.868Z,101542.81
2022-08-20T05:49:01.830Z,101543.00
2022-08-20T05:51:30.001Z,101540.19
2022-08-20T05:53:59.320Z,101541.44
2022-08-20T05:56:30.611Z,101543.06
2022-08-20T05:59:05.058Z,101555.81
2022-08-20T06:01:34.542Z,101553.06
2022-08-20T06:04:20.417Z,101561.16
2022-08-20T06:06:47.810Z,101561.59
2022-08-20T06:09:31.480Z,101560.88
2022-08-20T06:12:07.791Z,101563.31
2022-08-20T06:14:35.508Z,101560.03
2022-08-20T06:17:39.309Z,101557.81
2022-08-20T06:20:09.506Z,101567.28
2022-08-20T06:22:38.138Z,101567.31
2022-08-20T06:25:10.289Z,101555.84
2022-08-20T06:27:42.933Z,101559.44
2022-08-20T06:30:15.704Z,101562.78
2022-08-20T06:32:43.070Z,101559.34
2022-08-20T06:35:11.715Z,101551.34
2022-08-20T06:37:40.485Z,101552.13
2022-08-20T06:40:19.645Z,101560.22
2022-08-20T06:42:48.845Z,101557.38
2022-08-20T06:45:26.045Z,101556.84
2022-08-20T06:48:01.382Z,101554.13
2022-08-20T06:50:44.476Z,101549.91
2022-08-20T06:53:18.935Z,101556.16
2022-08-20T06:55:54.219Z,101558.53
2022-08-20T06:58:36.989Z,101550.63
2022-08-20T07:01:10.738Z,101559.66
2022-08-20T07:03:55.706Z,101563.69
2022-08-20T07:06:25.658Z,101559.88
2022-08-20T07:08:54.428Z,101566.75
2022-08-20T07:11:26.580Z,101565.13
2022-08-20T07:13:56.654Z,101561.84
2022-08-20T07:16:24.851Z,101577.81
2022-08-20T07:18:51.868Z,101574.72
2022-08-20T07:21:18.978Z,101581.34
2022-08-20T07:23:45.985Z,101580.25
2022-08-20T07:26:13.369Z,101584.03
2022-08-20T07:28:40.790Z,101582.25
2022-08-20T07:31:26.987Z,101577.81
2022-08-20T07:33:54.160Z,101583.50
2022-08-20T07:36:21.441Z,101585.91
2022-08-20T07:38:52.656Z,101587.59
2022-08-20T07:41:20.762Z,101590.69
2022-08-20T07:43:48.323Z,101604.66
2022-08-20T07:46:20.705Z,101597.03
2022-08-20T07:48:50.419Z,101592.31
2022-08-20T07:51:22.918Z,101594.47
2022-08-20T07:53:51.805Z,101601.13
2022-08-20T07:56:24.512Z,101605.97
2022-08-20T07:58:58.101Z,101605.72
2022-08-20T08:01:30.405Z,101614.84
2022-08-20T08:03:59.373Z,101620.81
2022-08-20T08:06:31.001Z,101619.19
2022-08-20T08:09:04.358Z,101619.41
2022-08-20T08:11:35.576Z,101619.22
2022-08-20T08:14:05.358Z,101623.66
2022-08-20T08:16:34.545Z,101619.22
2022-08-20T08:19:04.347Z,101622.78
2022-08-20T08:21:31.671Z,101619.97
2022-08-20T08:23:59.065Z,101614.03
2022-08-20T08:26:28.946Z,101617.69
2022-08-20T08:28:58.176Z,101618.63
2022-08-20T08:31:26.089Z,101619.00
2022-08-20T08:33:53.384Z,101621.94
2022-08-20T08:36:20.478Z,101631.03
2022-08-20T08:38:47.730Z,101628.53
2022-08-20T08:41:40.406Z,101635.53
2022-08-20T08:44:27.481Z,101630.97
2022-08-20T08:47:18.997Z,101636.28
2022-08-20T08:49:48.188Z,101641.44
2022-08-20T08:52:29.915Z,101634.66
2022-08-20T08:55:03.549Z,101648.03
2022-08-20T08:57:30.593Z,101638.31
2022-08-20T09:00:05.227Z,101637.91
2022-08-20T09:02:36.224Z,101638.22
2022-08-20T09:05:16.924Z,101635.59
2022-08-20T09:07:49.570Z,101627.78
2022-08-20T09:10:23.418Z,101624.53
2022-08-20T09:12:52.033Z,101617.16
2022-08-20T09:15:21.186Z,101618.06
2022-08-20T09:17:48.330Z,101621.16
2022-08-20T09:20:15.458Z,101627.28
2022-08-20T09:22:42.432Z,101610.38
2022-08-20T09:25:09.840Z,101612.13
2022-08-20T09:27:36.921Z,101608.25
2022-08-20T09:30:07.082Z,101598.94
2022-08-20T09:32:34.656Z,101602.84
2022-08-20T09:35:01.823Z,101605.00
2022-08-20T09:37:36.689Z,101596.38
2022-08-20T09:40:07.470Z,101594.69
2022-08-20T09:42:40.982Z,101592.50
2022-08-20T09:45:11.485Z,101590.19
2022-08-20T09:47:41.728Z,101592.31
2022-08-20T09:50:22.283Z,101581.75
2022-08-20T09:52:54.435Z,101581.91
2022-08-20T09:55:42.902Z,101582.31
2022-08-20T09:58:24.548Z,101579.75
2022-08-20T10:00:51.836Z,101576.38
2022-08-20T10:03:19.068Z,101593.06
2022-08-20T10:05:46.350Z,101581.66
2022-08-20T10:08:14.250Z,101574.13
2022-08-20T10:10:41.411Z,101575.28
2022-08-20T10:13:08.436Z,101576.28
2022-08-20T10:15:40.497Z,101571.09
2022-08-20T10:18:09.253Z,101576.16
2022-08-20T10:20:40.277Z,101589.06
2022-08-20T10:23:07.275Z,101578.94
2022-08-20T10:25:34.433Z,101596.09
2022-08-20T10:28:01.748Z,101577.19
2022-08-20T10:30:28.770Z,101576.75
2022-08-20T10:32:56.083Z,101591.34
2022-08-20T10:35:23.406Z,101596.53
2022-08-20T10:37:50.645Z,101590.75
2022-08-20T10:40:17.935Z,101593.16
2022-08-20T10:42:45.116Z,101581.38
2022-08-20T10:45:15.128Z,101589.38
2022-08-20T10:47:42.399Z,101597.31
2022-08-20T10:50:15.410Z,101594.06
2022-08-20T10:52:42.996Z,101592.94
2022-08-20T10:55:10.850Z,101591.44
2022-08-20T10:57:41.201Z,101599.47
2022-08-20T11:00:10.626Z,101600.41
2022-08-20T11:02:38.478Z,101602.16
2022-08-20T11:05:07.577Z,101609.53
2022-08-20T11:07:54.763Z,101619.47
2022-08-20T11:10:29.229Z,101607.19
2022-08-20T11:12:56.972Z,101601.28
2022-08-20T11:15:24.089Z,101586.09
2022-08-20T11:17:51.748Z,101597.41
2022-08-20T11:20:22.072Z,101595.03
2022-08-20T11:22:49.216Z,101594.72
2022-08-20T11:25:16.827Z,101606.50
2022-08-20T11:27:48.182Z,101598.38
2022-08-20T11:30:37.159Z,101612.03
2022-08-20T11:33:05.643Z,101604.47
2022-08-20T11:35:43.497Z,101600.59
2022-08-20T11:38:15.905Z,101601.88
2022-08-20T11:40:42.976Z,101602.28
2022-08-20T11:43:15.102Z,101614.34
2022-08-20T11:45:48.288Z,101607.09
2022-08-20T11:48:15.798Z,101613.28
2022-08-20T11:50:42.858Z,101608.34
2022-08-20T11:53:10.447Z,101603.56
2022-08-20T11:55:38.629Z,101600.28
2022-08-20T11:58:06.239Z,101600.19
2022-08-20T12:00:34.586Z,101594.47
2022-08-20T12:03:05.008Z,101606.47
2022-08-20T12:05:33.007Z,101614.34
2022-08-20T12:08:03.214Z,101602.13
2022-08-20T12:10:31.107Z,101603.31
2022-08-20T12:12:58.364Z,101592.97
2022-08-20T12:15:27.577Z,101598.44
2022-08-20T12:17:55.435Z,101601.19
2022-08-20T12:20:24.017Z,101606.69
2022-08-20T12:22:51.375Z,101603.47
2022-08-20T12:25:18.966Z,101601.84
2022-08-20T12:27:46.717Z,101592.66
2022-08-20T12:30:21.177Z,101593.06
2022-08-20T12:32:48.413Z,101589.91
2022-08-20T12:35:17.913Z,101591.50
2022-08-20T12:37:47.107Z,101602.78
2022-08-20T12:40:32.012Z,101602.44
2022-08-20T12:43:01.559Z,101592.41
2022-08-20T12:45:29.157Z,101599.09
2022-08-20T12:48:06.291Z,101589.94
2022-08-20T12:50:35.700Z,101595.03
2022-08-20T12:53:04.240Z,101585.84
2022-08-20T12:55:32.455Z,101589.31
2022-08-20T12:58:02.813Z,101596.41
2022-08-20T13:00:36.419Z,101589.41
2022-08-20T13:03:06.242Z,101591.44
2022-08-20T13:05:35.816Z,101597.13
2022-08-20T13:08:08.180Z,101593.34
2022-08-20T13:10:44.556Z,101586.00
2022-08-20T13:13:20.138Z,101589.13
2022-08-20T13:15:48.941Z,101582.84
2022-08-20T13:18:15.937Z,101586.88
2022-08-20T13:20:43.005Z,101593.81
2022-08-20T13:23:10.058Z,101582.84
2022-08-20T13:25:37.308Z,101578.16
2022-08-20T13:28:06.118Z,101582.63
2022-08-20T13:30:38.816Z,101579.53
2022-08-20T13:33:05.943Z,101573.63
2022-08-20T13:35:33.169Z,101576.13
2022-08-20T13:38:00.323Z,101583.31
2022-08-20T13:40:27.770Z,101580.72
2022-08-20T13:42:54.809Z,101571.72
2022-08-20T13:45:21.874Z,101572.31
2022-08-20T13:47:54.678Z,101561.41
2022-08-20T13:50:25.614Z,101573.09
2022-08-20T13:52:53.334Z,101560.53
2022-08-20T13:55:23.765Z,101558.47
2022-08-20T13:57:51.735Z,101559.50
2022-08-20T14:00:31.917Z,101556.31
2022-08-20T14:03:01.178Z,101554.94
2022-08-20T14:05:30.399Z,101554.06
2022-08-20T14:08:09.303Z,101559.66
2022-08-20T14:10:37.317Z,101554.81
2022-08-20T14:13:06.694Z,101563.34
2022-08-20T14:15:35.863Z,101566.38
2022-08-20T14:18:04.224Z,101572.34
2022-08-20T14:20:33.673Z,101566.06
2022-08-20T14:23:02.013Z,101562.22
2022-08-20T14:25:31.560Z,101547.88
2022-08-20T14:28:09.156Z,101553.63
2022-08-20T14:30:36.239Z,101560.25
2022-08-20T14:33:03.739Z,101561.13
2022-08-20T14:35:31.369Z,101559.25
2022-08-20T14:38:01.698Z,101552.41
2022-08-20T14:40:32.897Z,101546.09
2022-08-20T14:43:00.122Z,101556.53
2022-08-20T14:45:27.194Z,101550.72
2022-08-20T14:47:57.933Z,101538.97
2022-08-20T14:50:33.336Z,101548.69
2022-08-20T14:53:01.327Z,101549.63
2022-08-20T14:55:33.434Z,101558.50
2022-08-20T14:58:00.653Z,101553.56
2022-08-20T15:00:31.007Z,101546.91
2022-08-20T15:02:58.298Z,101550.09
2022-08-20T15:05:25.969Z,101549.09
2022-08-20T15:07:54.381Z,101556.94
2022-08-20T15:10:32.030Z,101549.25
2022-08-20T15:13:00.168Z,101546.56
2022-08-20T15:15:27.423Z,101542.47
2022-08-20T15:17:57.839Z,101545.16
2022-08-20T15:20:29.744Z,101541.31
2022-08-20T15:22:57.150Z,101542.13
2022-08-20T15:25:29.287Z,101534.00
2022-08-20T15:28:05.717Z,101540.91
2022-08-20T15:30:33.470Z,101547.59
2022-08-20T15:33:01.010Z,101537.34
2022-08-20T15:35:28.956Z,101534.81
2022-08-20T15:37:58.902Z,101531.97
2022-08-20T15:40:29.273Z,101533.06
2022-08-20T15:43:01.528Z,101534.38
2022-08-20T15:45:29.502Z,101529.63
2022-08-20T15:48:19.290Z,101524.72
2022-08-20T15:51:18.415Z,101531.03
2022-08-20T15:53:53.875Z,101530.69
2022-08-20T15:56:23.524Z,101524.38
2022-08-20T15:59:19.005Z,101532.00
2022-08-20T16:02:29.295Z,101536.50
2022-08-20T16:05:41.152Z,101540.09
2022-08-20T16:08:39.358Z,101539.81
2022-08-20T16:11:32.480Z,101536.22
2022-08-20T16:14:08.294Z,101538.16
2022-08-20T16:16:48.894Z,101541.09
2022-08-20T16:19:25.774Z,101541.84
2022-08-20T16:21:56.272Z,101545.28
2022-08-20T16:24:23.928Z,101557.19
2022-08-20T16:27:31.838Z,101556.97
2022-08-20T16:30:31.033Z,101558.44
2022-08-20T16:33:34.399Z,101565.91
2022-08-20T16:36:23.794Z,101564.56
2022-08-20T16:38:56.761Z,101563.94
2022-08-20T16:41:38.325Z,101560.34
2022-08-20T16:44:34.748Z,101559.81
2022-08-20T16:47:17.173Z,101572.22
2022-08-20T16:50:11.833Z,101570.38
2022-08-20T16:52:46.684Z,101567.25
2022-08-20T16:55:15.012Z,101563.97
2022-08-20T16:57:42.908Z,101569.09
2022-08-20T17:00:23.814Z,101581.78
2022-08-20T17:02:57.441Z,101574.81
2022-08-20T17:05:48.092Z,101574.25
2022-08-20T17:08:35.615Z,101582.63
2022-08-20T17:11:17.189Z,101593.72
2022-08-20T17:13:48.809Z,101569.19
2022-08-20T17:16:15.668Z,101571.22
2022-08-20T17:18:48.740Z,101557.78
2022-08-20T17:21:32.660Z,101572.88
2022-08-20T17:24:05.159Z,101561.78
2022-08-20T17:26:43.330Z,101569.66
2022-08-20T17:29:21.228Z,101567.63
2022-08-20T17:31:53.627Z,101578.13
2022-08-20T17:34:31.631Z,101570.16
2022-08-20T17:37:04.083Z,101580.97
2022-08-20T17:39:31.951Z,101585.41
2022-08-20T17:42:09.507Z,101593.56
2022-08-20T17:44:47.985Z,101593.19
2022-08-20T17:47:18.080Z,101582.94
2022-08-20T17:50:02.639Z,101597.56
2022-08-20T17:52:51.962Z,101594.13
2022-08-20T17:55:20.207Z,101588.78
2022-08-20T17:57:55.861Z,101586.81
2022-08-20T18:00:28.388Z,101580.88
2022-08-20T18:03:16.380Z,101593.13
2022-08-20T18:05:45.839Z,101579.16
2022-08-20T18:08:41.545Z,101578.56
2022-08-20T18:11:21.253Z,101564.78
2022-08-20T18:14:12.265Z,101562.94
2022-08-20T18:17:00.209Z,101571.47
2022-08-20T18:20:04.833Z,101565.94
2022-08-20T18:22:35.650Z,101566.06
2022-08-20T18:25:53.132Z,101575.44
2022-08-20T18:28:35.167Z,101571.31
2022-08-20T18:31:08.963Z,101566.47
2022-08-20T18:33:43.519Z,101569.03
2022-08-20T18:36:26.557Z,101572.41
2022-08-20T18:39:06.848Z,101577.19
2022-08-20T18:41:56.608Z,101569.03
2022-08-20T18:44:44.115Z,101573.34
2022-08-20T18:47:32.291Z,101566.25
2022-08-20T18:50:16.015Z,101572.47
2022-08-20T18:53:25.003Z,101570.31
2022-08-20T18:56:14.520Z,101562.38
2022-08-20T18:59:12.925Z,101559.38
2022-08-20T19:01:42.461Z,101576.13
2022-08-20T19:04:31.946Z,101563.69
2022-08-20T19:07:05.485Z,101573.16
2022-08-20T19:09:51.349Z,101569.94
2022-08-20T19:12:46.098Z,101574.06
2022-08-20T19:15:21.362Z,101577.88
2022-08-20T19:18:16.219Z,101571.25
2022-08-20T19:20:55.204Z,101580.88
2022-08-20T19:23:27.145Z,101587.19
2022-08-20T19:26:25.647Z,101585.34
2022-08-20T19:29:09.649Z,101585.81
2022-08-20T19:31:37.418Z,101592.25
2022-08-20T19:34:25.674Z,101580.72
2022-08-20T19:37:10.022Z,101585.47
2022-08-20T19:39:50.890Z,101592.25
2022-08-20T19:42:31.141Z,101590.03
2022-08-20T19:45:10.785Z,101589.38
2022-08-20T19:48:35.002Z,101590.44
2022-08-20T19:51:29.947Z,101602.47
2022-08-20T19:53:57.226Z,101604.91
2022-08-20T19:56:28.077Z,101595.56
2022-08-20T19:59:04.461Z,101603.88
2022-08-20T20:01:33.116Z,101605.63
2022-08-20T20:04:13.967Z,101588.22
2022-08-20T20:06:46.425Z,101600.63
2022-08-20T20:09:28.073Z,101598.88
2022-08-20T20:12:02.723Z,101597.19
2022-08-20T20:14:34.359Z,101599.22
2022-08-20T20:17:05.295Z,101602.03
2022-08-20T20:19:44.227Z,101606.56
2022-08-20T20:22:34.301Z,101595.88
2022-08-20T20:25:20.012Z,101596.78
2022-08-20T20:27:57.179Z,101602.25
2022-08-20T20:30:34.007Z,101605.84
2022-08-20T20:33:14.172Z,101603.34
2022-08-20T20:35:41.468Z,101606.13
2022-08-20T20:38:27.583Z,101605.28
2022-08-20T20:41:03.186Z,101603.75
2022-08-20T20:43:34.059Z,101602.81
2022-08-20T20:46:23.727Z,101597.44
2022-08-20T20:48:59.291Z,101591.38
2022-08-20T20:51:36.250Z,101589.59
2022-08-20T20:54:07.031Z,101585.28
2022-08-20T20:56:41.747Z,101588.97
2022-08-20T20:59:10.531Z,101594.31
2022-08-20T21:01:49.054Z,101587.25
2022-08-20T21:04:23.787Z,101590.03
2022-08-20T21:06:54.300Z,101585.59
2022-08-20T21:09:23.644Z,101587.47
2022-08-20T21:11:50.772Z,101590.34
2022-08-20T21:14:18.308Z,101592.94
2022-08-20T21:16:45.477Z,101588.69
2022-08-20T21:19:13.574Z,101593.91
2022-08-20T21:21:41.652Z,101593.00
2022-08-20T21:24:09.314Z,101594.00
2022-08-20T21:26:37.646Z,101598.50
2022-08-20T21:29:09.242Z,101598.38
2022-08-20T21:31:43.433Z,101598.53
2022-08-20T21:34:13.239Z,101605.78
2022-08-20T21:36:41.236Z,101600.44
2022-08-20T21:39:08.656Z,101601.38
2022-08-20T21:41:37.099Z,101608.41
2022-08-20T21:44:33.450Z,101600.56
2022-08-20T21:47:01.599Z,101607.72
2022-08-20T21:49:31.252Z,101604.28
2022-08-20T21:51:59.292Z,101605.16
2022-08-20T21:54:27.204Z,101601.66
2022-08-20T21:57:13.235Z,101603.53
2022-08-20T21:59:41.374Z,101602.66
2022-08-20T22:02:08.992Z,101605.25
2022-08-20T22:04:36.274Z,101607.09
2022-08-20T22:07:04.239Z,101599.16
2022-08-20T22:09:36.452Z,101602.72
2022-08-20T22:12:06.005Z,101603.66
2022-08-20T22:14:33.152Z,101602.75
2022-08-20T22:17:00.146Z,101600.13
2022-08-20T22:19:27.180Z,101599.31
2022-08-20T22:21:56.091Z,101594.88
2022-08-20T22:24:26.298Z,101600.25
2022-08-20T22:26:53.307Z,101599.41
2022-08-20T22:29:20.820Z,101591.53
2022-08-20T22:31:48.642Z,101589.69
2022-08-20T22:34:19.838Z,101587.94
2022-08-20T22:36:49.372Z,101587.97
2022-08-20T22:39:16.446Z,101589.69
2022-08-20T22:41:43.635Z,101590.63
2022-08-20T22:44:10.778Z,101590.66
2022-08-20T22:46:46.909Z,101583.69
2022-08-20T22:49:21.902Z,101584.66
2022-08-20T22:51:49.160Z,101583.72
2022-08-20T22:54:22.170Z,101581.13
2022-08-20T22:56:50.995Z,101581.13
2022-08-20T22:59:19.003Z,101582.91
2022-08-20T23:01:47.095Z,101585.59
2022-08-20T23:04:34.430Z,101581.25
2022-08-20T23:07:03.736Z,101581.25
2022-08-20T23:09:31.162Z,101582.06
2022-08-20T23:11:58.434Z,101583.00
2022-08-20T23:14:26.930Z,101569.75
2022-08-20T23:17:13.714Z,101573.31
2022-08-20T23:19:44.323Z,101572.44
2022-08-20T23:22:11.587Z,101569.78
2022-08-20T23:24:39.499Z,101569.78
2022-08-20T23:27:10.103Z,101562.66
2022-08-20T23:29:37.489Z,101562.69
2022-08-20T23:32:04.881Z,101561.88
2022-08-20T23:34:32.427Z,101562.78
2022-08-20T23:37:02.524Z,101561.00
2022-08-20T23:39:31.265Z,101563.69
2022-08-20T23:41:59.695Z,101561.94
2022-08-20T23:44:27.374Z,101568.97
2022-08-20T23:47:00.748Z,101569.84
2022-08-20T23:49:29.941Z,101560.16
2022-08-20T23:51:59.988Z,101562.81
2022-08-20T23:54:29.129Z,101567.25
2022-08-20T23:56:57.021Z,101562.88
2022-08-20T23:59:24.939Z,101558.44
